Time;durP1;ratioP1;P1;durP2;ratioP2;P2;SDS_P1;SDS_P2;PMS_P1;PMS_P2;Temp;Humidity;BMP_temperature;BMP_pressure;BME280_temperature;BME280_humidity;BME280_pressure;Samples;Min_cycle;Max_cycle;Signal;HPM_P1;HPM_P2
2021/09/23 00:01:02;;;;;;;1.17;0.80;;;15.00;99.90;;;;;;5000816;28;20186;-69
2021/09/23 00:05:54;;;;;;;0.53;0.40;;;15.10;99.90;;;;;;5000762;28;20217;-69
2021/09/23 00:08:19;;;;;;;4.13;3.90;;;15.10;99.90;;;;;;5000616;28;20611;-69
2021/09/23 00:10:45;;;;;;;1.17;1.07;;;15.00;99.90;;;;;;5001047;28;20190;-69
2021/09/23 00:13:13;;;;;;;0.43;0.30;;;15.00;99.90;;;;;;5000601;28;20183;-66
2021/09/23 00:15:40;;;;;;;3.38;3.10;;;15.00;99.90;;;;;;5000274;28;20788;-68
2021/09/23 00:18:09;;;;;;;1.00;1.00;;;15.00;99.90;;;;;;5000835;28;20186;-68
2021/09/23 00:20:37;;;;;;;2.42;2.15;;;15.00;99.90;;;;;;4999908;28;20713;-68
2021/09/23 00:23:04;;;;;;;0.40;0.20;;;14.90;99.90;;;;;;5000545;28;20174;-67
2021/09/23 00:25:29;;;;;;;0.85;0.75;;;14.90;99.90;;;;;;5000547;28;20721;-66
2021/09/23 00:27:57;;;;;;;1.17;0.97;;;14.90;99.90;;;;;;4999436;28;20182;-66
2021/09/23 00:30:22;;;;;;;0.85;0.85;;;15.00;99.90;;;;;;5000182;28;20182;-66
2021/09/23 00:32:50;;;;;;;0.80;0.57;;;14.90;99.90;;;;;;5000739;28;20181;-66
2021/09/23 00:35:16;;;;;;;1.00;1.00;;;14.90;99.90;;;;;;5000487;28;20528;-67
2021/09/23 00:37:42;;;;;;;2.42;2.30;;;14.90;99.90;;;;;;5000404;28;20183;-67
2021/09/23 00:40:09;;;;;;;4.43;3.63;;;14.80;99.90;;;;;;4999396;28;20612;-69
2021/09/23 00:42:38;;;;;;;1.95;1.80;;;14.80;99.90;;;;;;5000421;28;20663;-66
2021/09/23 00:45:06;;;;;;;31.02;27.80;;;14.80;99.90;;;;;;5000674;28;20225;-68
2021/09/23 00:47:31;;;;;;;0.50;0.50;;;14.70;99.90;;;;;;5000174;28;20197;-69
2021/09/23 00:49:57;;;;;;;0.63;0.57;;;14.60;99.90;;;;;;5000273;28;20289;-69
2021/09/23 00:52:27;;;;;;;0.40;0.20;;;14.70;99.90;;;;;;5001418;28;20193;-69
2021/09/23 00:54:55;;;;;;;6.63;4.90;;;14.60;99.90;;;;;;5000587;28;20461;-67
2021/09/23 00:57:21;;;;;;;0.40;0.20;;;14.60;99.90;;;;;;5001897;28;20178;-67
2021/09/23 00:59:48;;;;;;;6.07;4.03;;;14.60;99.90;;;;;;5000501;28;20174;-68
2021/09/23 01:02:15;;;;;;;2.97;1.73;;;14.60;99.90;;;;;;5000092;28;20187;-69
2021/09/23 01:04:44;;;;;;;0.93;0.93;;;14.60;99.90;;;;;;5000087;28;20218;-69
2021/09/23 01:07:11;;;;;;;2.08;1.88;;;14.50;99.90;;;;;;4999975;28;20198;-68
2021/09/23 01:09:38;;;;;;;1.30;0.50;;;14.50;99.90;;;;;;4995783;28;20287;-66
2021/09/23 01:12:07;;;;;;;1.88;1.50;;;14.40;99.90;;;;;;4997058;28;20656;-69
2021/09/23 01:14:33;;;;;;;1.05;0.85;;;14.30;99.90;;;;;;4997008;28;20214;-66
2021/09/23 01:16:58;;;;;;;1.40;1.30;;;14.40;99.90;;;;;;4998829;28;20193;-69
2021/09/23 01:19:24;;;;;;;3.73;3.53;;;14.30;99.90;;;;;;4999033;28;20214;-68
2021/09/23 01:21:50;;;;;;;0.60;0.60;;;14.30;99.90;;;;;;4997886;28;20178;-67
2021/09/23 01:24:15;;;;;;;0.63;0.57;;;14.30;99.90;;;;;;4996713;28;20596;-68
2021/09/23 01:26:41;;;;;;;0.30;0.20;;;14.30;99.90;;;;;;4996855;28;20522;-67
2021/09/23 01:29:07;;;;;;;3.67;3.30;;;14.30;99.90;;;;;;4996559;28;20175;-67
2021/09/23 01:31:32;;;;;;;0.87;0.87;;;14.30;99.90;;;;;;4996707;28;20482;-68
2021/09/23 01:33:58;;;;;;;0.40;0.30;;;14.20;99.90;;;;;;4996563;28;20182;-67
2021/09/23 01:36:23;;;;;;;2.17;1.97;;;14.20;99.90;;;;;;4996521;28;20187;-67
2021/09/23 01:38:52;;;;;;;1.40;1.40;;;14.30;99.90;;;;;;4996482;28;20194;-67
2021/09/23 01:41:17;;;;;;;0.77;0.70;;;14.20;99.90;;;;;;4996466;28;20183;-68
2021/09/23 01:43:43;;;;;;;2.40;2.30;;;14.20;99.90;;;;;;4996434;28;20253;-66
2021/09/23 01:46:08;;;;;;;0.40;0.40;;;14.20;99.90;;;;;;4996349;28;20246;-67
2021/09/23 01:48:34;;;;;;;0.30;0.20;;;14.10;99.90;;;;;;4995955;28;20182;-68
2021/09/23 01:51:00;;;;;;;0.53;0.50;;;14.30;99.90;;;;;;4996644;28;20580;-65
2021/09/23 01:53:25;;;;;;;0.57;0.57;;;14.20;99.90;;;;;;4996482;28;20592;-66
2021/09/23 01:55:51;;;;;;;0.30;0.20;;;14.20;99.90;;;;;;4996380;28;20675;-65
2021/09/23 01:58:16;;;;;;;1.60;1.60;;;14.20;99.90;;;;;;4996106;28;20183;-67
2021/09/23 02:00:42;;;;;;;1.57;1.47;;;14.30;99.90;;;;;;4996212;28;20511;-65
2021/09/23 02:03:08;;;;;;;2.67;2.03;;;14.30;99.90;;;;;;4996124;28;20182;-66
2021/09/23 02:05:33;;;;;;;0.30;0.20;;;14.30;99.90;;;;;;4995983;28;20217;-68
2021/09/23 02:07:59;;;;;;;3.17;2.57;;;14.30;99.90;;;;;;4995345;28;20682;-66
2021/09/23 02:10:24;;;;;;;0.30;0.20;;;14.20;99.90;;;;;;4995114;28;20175;-65
2021/09/23 02:12:50;;;;;;;1.27;1.07;;;14.10;99.90;;;;;;4997529;28;20667;-67
2021/09/23 02:15:16;;;;;;;1.90;1.80;;;14.00;99.90;;;;;;4996543;28;20245;-65
2021/09/23 02:17:44;;;;;;;4.00;3.65;;;13.90;99.90;;;;;;4995689;28;20186;-65
2021/09/23 02:20:10;;;;;;;3.03;2.83;;;13.90;99.90;;;;;;4993426;28;20394;-65
2021/09/23 02:22:36;;;;;;;0.50;0.35;;;14.00;99.90;;;;;;4994769;28;20186;-68
2021/09/23 02:25:01;;;;;;;1.70;1.17;;;14.00;99.90;;;;;;4995755;28;20253;-68
2021/09/23 02:27:27;;;;;;;0.37;0.27;;;14.00;99.90;;;;;;4995523;28;20635;-69
2021/09/23 02:29:52;;;;;;;3.27;2.20;;;14.00;99.90;;;;;;4995521;28;20175;-68
2021/09/23 02:32:18;;;;;;;2.90;2.80;;;13.90;99.90;;;;;;4995457;28;20175;-66
2021/09/23 02:34:43;;;;;;;1.50;1.40;;;13.90;99.90;;;;;;4995502;28;20233;-66
2021/09/23 02:37:09;;;;;;;0.40;0.37;;;13.90;99.90;;;;;;4995341;28;20191;-66
2021/09/23 02:39:35;;;;;;;10.70;3.00;;;13.90;99.90;;;;;;4995371;28;20621;-66
2021/09/23 02:42:01;;;;;;;0.40;0.30;;;13.90;99.90;;;;;;4995381;28;20290;-68
2021/09/23 02:44:26;;;;;;;4.40;3.27;;;13.80;99.90;;;;;;4995211;28;20206;-66
2021/09/23 02:46:52;;;;;;;2.00;1.90;;;13.80;99.90;;;;;;4995128;28;20171;-66
2021/09/23 02:49:18;;;;;;;0.50;0.30;;;13.80;99.90;;;;;;4995001;28;20195;-65
2021/09/23 02:51:43;;;;;;;1.27;0.90;;;13.70;99.90;;;;;;4995125;28;20241;-68
2021/09/23 02:54:09;;;;;;;3.93;2.70;;;13.70;99.90;;;;;;4995142;28;20189;-68
2021/09/23 02:56:35;;;;;;;2.57;2.37;;;13.70;99.90;;;;;;4995117;28;20244;-65
2021/09/23 02:59:00;;;;;;;4.40;4.00;;;13.80;99.90;;;;;;4995036;28;20465;-65
2021/09/23 03:01:26;;;;;;;2.27;1.57;;;13.70;99.90;;;;;;4995605;28;20519;-68
2021/09/23 03:03:51;;;;;;;1.77;1.67;;;13.80;99.90;;;;;;4994493;28;20190;-67
2021/09/23 03:06:17;;;;;;;3.50;2.23;;;13.90;99.90;;;;;;4994955;28;20287;-68
2021/09/23 03:08:43;;;;;;;6.73;4.03;;;14.00;99.90;;;;;;4994672;28;20520;-68
2021/09/23 03:11:08;;;;;;;2.30;2.10;;;14.00;99.90;;;;;;4994894;28;20183;-69
2021/09/23 03:13:34;;;;;;;1.60;1.17;;;14.00;99.90;;;;;;4994723;28;20190;-68
2021/09/23 03:16:00;;;;;;;7.80;5.53;;;14.10;99.90;;;;;;4994632;28;20179;-68
2021/09/23 03:18:26;;;;;;;15.13;4.43;;;14.10;99.90;;;;;;4993421;28;20183;-68
2021/09/23 03:20:51;;;;;;;0.40;0.30;;;14.10;99.90;;;;;;4994594;28;20193;-68
2021/09/23 03:23:17;;;;;;;1.43;1.33;;;14.20;99.90;;;;;;4994574;28;20179;-68
2021/09/23 03:25:44;;;;;;;3.37;3.27;;;14.00;99.90;;;;;;4994490;28;20977;-68
2021/09/23 03:28:10;;;;;;;2.42;2.28;;;14.00;99.90;;;;;;4994416;28;20175;-68
2021/09/23 03:30:36;;;;;;;9.60;6.75;;;14.00;99.90;;;;;;4994399;28;20195;-68
2021/09/23 03:33:07;;;;;;;6.05;5.05;;;14.00;99.90;;;;;;4993993;28;20174;-68
2021/09/23 03:35:33;;;;;;;4.38;4.05;;;13.90;99.90;;;;;;4994443;28;20175;-68
2021/09/23 03:37:59;;;;;;;2.35;2.08;;;13.80;99.90;;;;;;4994316;28;20600;-68
2021/09/23 03:40:26;;;;;;;5.23;3.00;;;13.80;99.90;;;;;;4994251;28;20237;-68
2021/09/23 03:42:52;;;;;;;5.47;1.98;;;13.90;99.80;;;;;;4994341;28;20449;-68
2021/09/23 03:45:18;;;;;;;3.45;3.20;;;13.90;93.60;;;;;;4994268;28;20298;-69
2021/09/23 03:47:44;;;;;;;5.40;3.75;;;13.90;90.40;;;;;;4994336;28;20557;-69
2021/09/23 03:50:11;;;;;;;3.38;3.17;;;13.80;83.10;;;;;;4993986;28;20241;-68
2021/09/23 03:52:37;;;;;;;2.40;2.20;;;13.80;92.60;;;;;;4994437;28;20175;-69
2021/09/23 03:55:04;;;;;;;5.23;4.73;;;13.80;67.10;;;;;;4994215;28;20278;-68
2021/09/23 03:57:29;;;;;;;7.30;4.15;;;13.70;68.40;;;;;;4994049;28;20433;-68
2021/09/23 03:59:55;;;;;;;21.57;6.70;;;13.60;87.40;;;;;;4994066;28;20194;-65
2021/09/23 04:02:21;;;;;;;6.77;2.70;;;13.60;99.90;;;;;;4994033;28;20183;-68
2021/09/23 04:04:46;;;;;;;12.53;6.73;;;13.60;96.70;;;;;;4993889;28;20297;-68
2021/09/23 04:07:12;;;;;;;9.17;5.40;;;13.60;83.70;;;;;;4993267;28;20182;-68
2021/09/23 04:09:38;;;;;;;0.40;0.30;;;13.60;77.00;;;;;;4994156;28;20179;-68
2021/09/23 04:12:04;;;;;;;2.23;1.30;;;13.70;55.00;;;;;;4994087;28;20266;-68
2021/09/23 04:14:29;;;;;;;1.63;1.48;;;13.60;34.10;;;;;;4994474;28;20775;-68
2021/09/23 04:16:55;;;;;;;4.80;4.33;;;13.60;37.00;;;;;;4994027;28;20178;-65
2021/09/23 04:19:21;;;;;;;1.85;1.75;;;13.70;27.40;;;;;;4993958;28;20635;-65
2021/09/23 04:21:47;;;;;;;5.50;5.03;;;13.70;18.10;;;;;;4993208;28;20183;-65
2021/09/23 04:24:12;;;;;;;5.67;2.67;;;13.70;2.80;;;;;;4993985;28;20265;-66
2021/09/23 04:26:38;;;;;;;4.73;3.60;;;13.70;7.10;;;;;;4993950;28;20422;-67
2021/09/23 04:29:04;;;;;;;12.17;7.53;;;13.70;7.50;;;;;;4993864;28;20254;-67
2021/09/23 04:31:30;;;;;;;4.75;4.43;;;13.70;1.00;;;;;;4993135;28;20210;-67
2021/09/23 04:33:56;;;;;;;1.53;0.87;;;13.70;1.00;;;;;;4993968;28;20576;-67
2021/09/23 04:36:21;;;;;;;2.57;1.97;;;13.70;1.00;;;;;;4993965;28;20505;-67
2021/09/23 04:38:47;;;;;;;4.30;3.90;;;13.80;1.00;;;;;;4993964;28;20490;-68
2021/09/23 04:41:13;;;;;;;8.23;4.53;;;13.80;1.00;;;;;;4992872;28;20662;-68
2021/09/23 04:43:40;;;;;;;5.23;4.03;;;13.80;1.00;;;;;;4993697;28;20225;-68
2021/09/23 04:46:06;;;;;;;1.92;1.83;;;13.80;1.00;;;;;;4997448;28;20210;-67
2021/09/23 04:48:35;;;;;;;5.93;4.97;;;13.90;1.00;;;;;;4996342;28;20249;-68
2021/09/23 04:51:05;;;;;;;3.38;2.20;;;13.80;1.00;;;;;;4997901;28;20425;-69
2021/09/23 04:53:31;;;;;;;1.27;1.27;;;13.80;1.00;;;;;;4996299;28;20179;-68
2021/09/23 04:55:56;;;;;;;1.27;1.17;;;13.80;1.00;;;;;;4997298;28;20569;-68
2021/09/23 04:58:22;;;;;;;9.33;5.63;;;13.80;1.00;;;;;;4996984;28;20191;-68
2021/09/23 05:00:47;;;;;;;2.33;2.13;;;13.80;1.00;;;;;;4997153;28;20190;-68
2021/09/23 05:03:18;;;;;;;4.43;3.33;;;13.70;1.00;;;;;;4997193;28;20258;-68
2021/09/23 05:05:43;;;;;;;11.95;6.90;;;13.80;1.00;;;;;;4996852;28;20206;-68
2021/09/23 05:08:09;;;;;;;3.77;3.47;;;13.80;1.00;;;;;;4996845;28;20198;-69
2021/09/23 05:10:35;;;;;;;6.70;5.03;;;13.70;1.00;;;;;;4996915;28;20211;-69
2021/09/23 05:13:02;;;;;;;4.43;4.07;;;13.70;1.00;;;;;;4996918;28;20744;-69
2021/09/23 05:15:28;;;;;;;1.67;1.58;;;13.70;1.00;;;;;;4996734;28;20772;-69
2021/09/23 05:17:53;;;;;;;2.83;2.60;;;13.80;1.00;;;;;;4996937;28;20198;-69
2021/09/23 05:20:19;;;;;;;8.07;5.60;;;13.80;1.00;;;;;;4996571;28;20500;-69
2021/09/23 05:22:45;;;;;;;2.00;1.90;;;13.70;1.00;;;;;;4996602;28;20218;-69
2021/09/23 05:25:11;;;;;;;8.27;5.80;;;13.80;1.00;;;;;;4995727;28;20292;-69
2021/09/23 05:27:38;;;;;;;1.60;1.50;;;13.70;1.00;;;;;;4995890;28;20540;-66
2021/09/23 05:30:07;;;;;;;5.00;2.90;;;13.90;1.00;;;;;;4996487;28;20187;-68
2021/09/23 05:32:32;;;;;;;1.67;1.58;;;13.90;1.00;;;;;;4996382;28;20179;-68
2021/09/23 05:34:58;;;;;;;4.23;1.90;;;13.90;1.00;;;;;;4996469;28;20179;-68
2021/09/23 05:37:23;;;;;;;3.77;3.50;;;14.00;1.00;;;;;;4996051;28;20175;-68
2021/09/23 05:39:49;;;;;;;6.53;4.47;;;14.20;1.00;;;;;;4995405;28;20498;-69
2021/09/23 05:42:15;;;;;;;0.80;0.67;;;14.20;1.00;;;;;;4995494;28;20179;-70
2021/09/23 05:44:40;;;;;;;2.40;1.50;;;14.30;1.00;;;;;;4996095;28;20703;-69
2021/09/23 05:47:06;;;;;;;0.77;0.77;;;14.20;1.00;;;;;;4996474;28;20259;-69
2021/09/23 05:49:32;;;;;;;1.23;0.93;;;14.10;1.00;;;;;;4995413;28;20194;-69
2021/09/23 05:51:59;;;;;;;4.17;2.60;;;14.10;1.00;;;;;;4997391;28;20175;-69
2021/09/23 05:54:26;;;;;;;2.47;0.52;;;14.00;1.00;;;;;;4997436;28;20569;-69
2021/09/23 05:56:52;;;;;;;0.40;0.30;;;14.10;1.00;;;;;;4996377;28;20262;-69
2021/09/23 05:59:24;;;;;;;4.10;3.22;;;14.30;1.00;;;;;;4997137;28;20179;-69
2021/09/23 06:01:51;;;;;;;4.47;3.00;;;14.40;1.00;;;;;;4998024;28;20217;-69
2021/09/23 06:04:16;;;;;;;2.13;1.55;;;14.40;1.00;;;;;;4994064;28;20237;-67
2021/09/23 06:06:42;;;;;;;0.50;0.47;;;14.50;1.00;;;;;;4996034;28;20171;-66
2021/09/23 06:09:08;;;;;;;0.83;0.77;;;14.60;1.00;;;;;;4995766;28;20194;-65
2021/09/23 06:11:37;;;;;;;9.27;5.53;;;14.60;1.00;;;;;;4996422;28;20171;-68
2021/09/23 06:14:03;;;;;;;1.42;1.33;;;14.50;1.00;;;;;;4996268;28;20182;-67
2021/09/23 06:16:28;;;;;;;0.70;0.70;;;14.40;1.00;;;;;;4995988;28;20338;-68
2021/09/23 06:18:54;;;;;;;3.80;3.40;;;14.40;1.00;;;;;;4995865;28;20182;-68
2021/09/23 06:21:19;;;;;;;6.03;5.43;;;14.50;1.00;;;;;;4995960;28;20281;-68
2021/09/23 06:23:45;;;;;;;4.77;3.67;;;14.60;1.00;;;;;;4995661;28;20231;-68
2021/09/23 06:26:11;;;;;;;0.87;0.83;;;14.50;1.00;;;;;;4995394;28;20583;-68
2021/09/23 06:28:36;;;;;;;2.13;1.97;;;14.40;1.00;;;;;;4994534;28;20202;-65
2021/09/23 06:31:02;;;;;;;12.17;2.83;;;14.40;1.00;;;;;;4995282;28;20194;-65
2021/09/23 06:33:28;;;;;;;1.87;0.83;;;14.40;1.00;;;;;;4995775;28;20175;-65
2021/09/23 06:35:54;;;;;;;1.40;1.30;;;14.60;1.00;;;;;;4995250;28;20191;-64
2021/09/23 06:38:20;;;;;;;8.07;4.10;;;14.80;1.00;;;;;;4995141;28;20492;-64
2021/09/23 06:40:46;;;;;;;0.87;0.87;;;14.80;1.00;;;;;;4988342;28;20451;-65
2021/09/23 06:43:12;;;;;;;0.55;0.55;;;14.90;1.00;;;;;;4991543;28;20194;-66
2021/09/23 06:45:38;;;;;;;0.83;0.83;;;14.90;1.00;;;;;;4994841;28;20272;-65
2021/09/23 06:48:04;;;;;;;0.63;0.63;;;14.90;1.00;;;;;;4994872;28;20667;-65
2021/09/23 06:50:30;;;;;;;2.92;2.47;;;15.00;1.00;;;;;;4994966;28;20484;-64
2021/09/23 06:52:55;;;;;;;2.30;1.37;;;15.00;1.00;;;;;;4995073;28;20183;-65
2021/09/23 06:55:21;;;;;;;1.07;0.97;;;15.10;1.00;;;;;;4994099;28;20197;-67
2021/09/23 06:57:47;;;;;;;5.37;4.00;;;15.10;1.00;;;;;;4994641;28;20195;-68
2021/09/23 07:00:13;;;;;;;3.23;2.77;;;15.10;1.00;;;;;;4994555;28;20434;-68
2021/09/23 07:02:38;;;;;;;1.80;1.70;;;15.00;1.00;;;;;;4993903;28;20257;-64
2021/09/23 07:05:05;;;;;;;6.53;3.63;;;15.10;1.00;;;;;;4993661;28;21017;-67
2021/09/23 07:07:30;;;;;;;3.00;2.85;;;15.10;1.00;;;;;;4993019;28;20218;-65
2021/09/23 07:09:56;;;;;;;6.13;5.40;;;15.10;1.00;;;;;;4994233;28;20289;-65
2021/09/23 07:12:22;;;;;;;5.50;2.37;;;15.10;1.00;;;;;;4994060;28;20179;-64
2021/09/23 07:14:48;;;;;;;2.80;2.10;;;15.20;1.00;;;;;;4993866;28;20210;-64
2021/09/23 07:17:13;;;;;;;5.40;3.70;;;15.10;1.00;;;;;;4994569;28;20187;-64
2021/09/23 07:19:39;;;;;;;1.03;0.70;;;15.10;17.90;;;;;;4994736;28;20436;-64
2021/09/23 07:22:05;;;;;;;7.00;4.37;;;15.30;1.00;;;;;;4994780;28;20207;-65
2021/09/23 07:24:31;;;;;;;6.13;3.70;;;15.30;1.00;;;;;;4994213;28;20179;-67
2021/09/23 07:26:57;;;;;;;6.38;2.85;;;15.20;6.70;;;;;;4992713;28;20179;-65
2021/09/23 07:29:24;;;;;;;3.47;3.15;;;15.30;8.50;;;;;;4994113;28;20179;-65
2021/09/23 07:31:50;;;;;;;0.47;0.35;;;15.50;1.00;;;;;;4994511;28;20218;-65
2021/09/23 07:34:16;;;;;;;6.77;2.50;;;15.70;1.00;;;;;;4994930;28;20187;-65
2021/09/23 07:36:41;;;;;;;0.73;0.73;;;15.80;1.00;;;;;;4993646;28;20228;-68
2021/09/23 07:39:08;;;;;;;4.47;3.33;;;15.90;1.00;;;;;;4994120;28;20215;-68
2021/09/23 07:41:37;;;;;;;1.40;1.35;;;16.10;1.00;;;;;;4994730;28;20187;-69
2021/09/23 07:44:07;;;;;;;6.57;3.73;;;16.30;1.00;;;;;;4994473;28;20266;-65
2021/09/23 07:46:33;;;;;;;1.77;1.67;;;16.30;1.00;;;;;;4993838;28;20462;-67
2021/09/23 07:48:59;;;;;;;7.45;6.88;;;16.30;1.00;;;;;;4993931;28;20504;-68
2021/09/23 07:51:25;;;;;;;1.90;1.43;;;16.20;1.00;;;;;;4994433;28;20174;-67
2021/09/23 07:53:50;;;;;;;1.27;1.17;;;16.20;1.00;;;;;;4994482;28;20179;-67
2021/09/23 07:56:16;;;;;;;7.70;3.80;;;16.10;1.00;;;;;;4994341;28;20430;-66
2021/09/23 07:58:42;;;;;;;3.10;2.50;;;16.40;1.00;;;;;;4993971;28;20266;-66
2021/09/23 08:01:09;;;;;;;2.93;2.00;;;16.50;1.00;;;;;;4993959;28;20182;-66
2021/09/23 08:03:34;;;;;;;1.67;1.23;;;16.60;1.00;;;;;;4994017;28;20887;-66
2021/09/23 08:06:00;;;;;;;5.80;3.17;;;16.60;1.00;;;;;;4994255;28;20462;-69
2021/09/23 08:08:26;;;;;;;9.83;2.93;;;16.60;1.00;;;;;;4993568;28;20714;-68
2021/09/23 08:10:51;;;;;;;3.73;2.03;;;16.60;1.00;;;;;;4992862;28;20248;-68
2021/09/23 08:13:17;;;;;;;1.47;0.73;;;16.80;1.00;;;;;;4993844;28;20492;-69
2021/09/23 08:15:43;;;;;;;5.37;4.83;;;16.80;1.00;;;;;;4994003;28;20179;-68
2021/09/23 08:18:09;;;;;;;10.13;5.70;;;16.80;1.00;;;;;;4995407;28;20515;-69
2021/09/23 08:20:35;;;;;;;2.40;1.53;;;16.90;1.00;;;;;;4997879;28;20426;-67
2021/09/23 08:23:04;;;;;;;6.70;4.63;;;17.00;1.00;;;;;;4996933;28;20624;-66
2021/09/23 08:25:30;;;;;;;2.00;1.90;;;17.20;1.00;;;;;;4997848;28;20218;-66
2021/09/23 08:27:55;;;;;;;1.27;1.10;;;17.10;1.00;;;;;;4997784;28;20422;-66
2021/09/23 08:30:21;;;;;;;3.00;2.10;;;17.10;1.00;;;;;;4997492;28;20428;-66
2021/09/23 08:32:46;;;;;;;1.93;1.60;;;17.20;1.00;;;;;;4997766;28;20214;-66
2021/09/23 08:35:12;;;;;;;6.17;5.57;;;17.10;1.00;;;;;;4997991;28;20179;-66
2021/09/23 08:37:39;;;;;;;6.63;5.33;;;17.30;1.00;;;;;;4998161;28;20529;-66
2021/09/23 08:40:12;;;;;;;6.43;4.07;;;17.10;1.00;;;;;;4997459;28;20187;-66
2021/09/23 08:42:39;;;;;;;4.77;4.30;;;17.00;1.00;;;;;;4997109;28;20902;-66
2021/09/23 08:45:10;;;;;;;13.07;3.70;;;17.00;1.00;;;;;;4996900;28;20472;-66
2021/09/23 08:47:36;;;;;;;0.97;0.87;;;17.20;1.00;;;;;;4996138;28;20226;-66
2021/09/23 08:50:03;;;;;;;8.40;6.40;;;17.20;1.00;;;;;;4996337;28;20904;-66
2021/09/23 08:52:29;;;;;;;6.83;3.20;;;17.00;1.00;;;;;;4997205;28;20191;-67
2021/09/23 08:54:55;;;;;;;2.40;1.50;;;16.90;1.00;;;;;;4996142;28;20421;-68
2021/09/23 08:57:21;;;;;;;9.17;6.47;;;17.00;1.00;;;;;;4996958;28;20909;-68
2021/09/23 08:59:46;;;;;;;2.47;0.97;;;17.00;1.00;;;;;;4996897;28;20604;-68
2021/09/23 09:02:26;;;;;;;7.90;4.17;;;17.00;1.00;;;;;;4996885;28;20186;-68
2021/09/23 09:04:54;;;;;;;2.83;1.43;;;17.10;1.00;;;;;;4996959;28;20198;-69
2021/09/23 09:07:30;;;;;;;2.70;1.30;;;17.20;1.00;;;;;;4996855;28;20422;-68
2021/09/23 09:10:08;;;;;;;1.90;1.23;;;17.00;1.00;;;;;;4996992;28;20509;-68
2021/09/23 09:12:35;;;;;;;5.63;5.13;;;16.90;1.00;;;;;;4996837;28;20418;-68
2021/09/23 09:15:02;;;;;;;6.70;6.30;;;16.90;1.00;;;;;;4996946;28;20761;-68
2021/09/23 09:17:35;;;;;;;29.47;3.83;;;16.90;1.00;;;;;;4996721;28;20418;-68
2021/09/23 09:20:03;;;;;;;7.27;6.27;;;16.90;1.00;;;;;;4996408;28;20682;-68
2021/09/23 09:22:31;;;;;;;4.83;4.03;;;16.80;1.00;;;;;;4996702;28;20656;-68
2021/09/23 09:25:00;;;;;;;1.20;0.97;;;16.60;1.00;;;;;;4996824;28;20573;-68
2021/09/23 09:27:29;;;;;;;9.00;3.73;;;16.70;1.00;;;;;;4996240;28;20989;-66
2021/09/23 09:30:10;;;;;;;1.20;1.10;;;16.80;1.00;;;;;;4994652;28;20488;-66
2021/09/23 09:32:40;;;;;;;2.47;2.27;;;16.90;1.00;;;;;;4995474;28;20458;-66
2021/09/23 09:35:08;;;;;;;0.67;0.60;;;16.90;1.00;;;;;;4996308;28;20442;-66
2021/09/23 09:37:34;;;;;;;1.47;1.30;;;16.90;1.00;;;;;;4996272;28;20458;-66
2021/09/23 09:40:01;;;;;;;2.93;2.47;;;17.20;1.00;;;;;;4996292;28;20458;-66
2021/09/23 09:42:28;;;;;;;4.10;3.90;;;17.50;1.00;;;;;;4996386;28;20457;-66
2021/09/23 09:44:59;;;;;;;2.37;2.20;;;17.50;1.00;;;;;;4996255;28;20851;-66
2021/09/23 09:47:30;;;;;;;7.57;5.00;;;17.50;1.00;;;;;;4996113;28;20437;-66
2021/09/23 09:49:57;;;;;;;4.10;3.53;;;17.40;1.00;;;;;;4996074;28;20958;-66
2021/09/23 09:52:31;;;;;;;8.47;3.87;;;17.30;1.00;;;;;;4996269;28;20422;-66
2021/09/23 09:55:15;;;;;;;1.40;1.13;;;17.20;1.00;;;;;;4995962;28;20914;-66
2021/09/23 09:57:49;;;;;;;3.43;3.10;;;17.30;1.00;;;;;;4996108;28;20429;-66
2021/09/23 10:00:15;;;;;;;1.67;1.07;;;17.30;1.00;;;;;;4996454;28;20561;-66
2021/09/23 10:02:43;;;;;;;4.43;3.93;;;17.50;1.00;;;;;;4996075;28;20437;-66
2021/09/23 10:05:11;;;;;;;8.00;3.40;;;17.60;1.00;;;;;;4995800;28;20490;-66
2021/09/23 10:07:39;;;;;;;0.40;0.20;;;17.60;1.00;;;;;;4995733;28;20426;-66
2021/09/23 10:10:06;;;;;;;0.57;0.40;;;17.60;1.00;;;;;;4995817;28;20433;-66
2021/09/23 10:12:33;;;;;;;3.37;2.43;;;17.70;1.00;;;;;;4995759;28;20422;-66
2021/09/23 10:14:59;;;;;;;3.20;2.90;;;18.00;1.00;;;;;;4996025;28;20441;-66
2021/09/23 10:17:29;;;;;;;0.70;0.67;;;18.20;1.00;;;;;;4994788;28;20512;-66
2021/09/23 10:19:58;;;;;;;1.03;0.73;;;18.20;99.90;;;;;;4995327;28;20430;-66
2021/09/23 10:22:25;;;;;;;2.87;2.03;;;18.20;99.90;;;;;;4995568;28;20452;-66
2021/09/23 10:24:52;;;;;;;2.83;2.47;;;18.30;99.90;;;;;;4996090;28;20465;-67
2021/09/23 10:30:03;;;;;;;4.23;3.87;;;18.30;99.90;;;;;;4996376;28;20518;-69
2021/09/23 10:32:29;;;;;;;3.27;2.10;;;18.30;99.90;;;;;;4994847;28;20907;-66
2021/09/23 10:34:56;;;;;;;4.80;2.30;;;18.10;99.90;;;;;;4995752;28;20440;-66
2021/09/23 10:37:22;;;;;;;3.47;2.60;;;18.40;99.90;;;;;;4995531;28;20445;-66
2021/09/23 10:39:48;;;;;;;4.07;2.90;;;18.50;55.50;;;;;;4995526;28;20934;-66
2021/09/23 10:42:20;;;;;;;0.73;0.63;;;18.30;99.90;;;;;;4993471;28;20438;-66
2021/09/23 10:44:48;;;;;;;1.27;1.17;;;18.20;99.90;;;;;;4995097;28;20628;-68
2021/09/23 10:47:22;;;;;;;0.60;0.60;;;18.30;99.90;;;;;;4995825;28;20879;-69
2021/09/23 10:49:48;;;;;;;2.97;2.53;;;18.40;99.90;;;;;;4995244;28;20453;-66
2021/09/23 10:52:14;;;;;;;3.67;1.63;;;18.40;99.90;;;;;;4994869;28;20426;-67
2021/09/23 10:54:40;;;;;;;2.00;1.90;;;18.20;99.90;;;;;;4994909;28;20883;-68
2021/09/23 10:57:07;;;;;;;0.60;0.40;;;18.30;99.90;;;;;;4996030;28;20428;-67
2021/09/23 10:59:33;;;;;;;3.87;3.40;;;18.50;99.90;;;;;;4994974;28;20206;-68
2021/09/23 11:02:19;;;;;;;3.13;2.20;;;18.70;1.00;;;;;;4996448;28;20461;-66
2021/09/23 11:04:48;;;;;;;0.77;0.63;;;18.60;1.00;;;;;;4995450;28;20588;-66
2021/09/23 11:07:15;;;;;;;0.63;0.30;;;18.80;1.00;;;;;;4995180;28;20573;-66
2021/09/23 11:10:11;;;;;;;3.23;2.10;;;18.90;1.00;;;;;;4995746;28;20438;-66
2021/09/23 11:12:38;;;;;;;3.67;3.47;;;18.90;1.00;;;;;;4994194;28;20430;-67
2021/09/23 11:15:06;;;;;;;3.77;2.00;;;18.70;1.00;;;;;;4995237;28;20891;-67
2021/09/23 11:17:33;;;;;;;2.47;2.27;;;18.50;74.60;;;;;;4995123;28;20839;-66
2021/09/23 11:20:11;;;;;;;2.73;1.67;;;18.20;99.90;;;;;;4994443;28;20453;-69
2021/09/23 11:22:45;;;;;;;6.17;4.53;;;18.10;99.90;;;;;;4994833;28;20425;-68
2021/09/23 11:25:14;;;;;;;2.00;1.03;;;18.10;99.90;;;;;;4993860;28;20801;-67
2021/09/23 11:27:41;;;;;;;0.67;0.40;;;18.00;1.00;;;;;;4994587;28;20433;-67
2021/09/23 11:30:09;;;;;;;2.93;1.70;;;17.80;1.00;;;;;;4994298;28;20973;-68
2021/09/23 11:32:47;;;;;;;3.43;3.23;;;17.70;1.00;;;;;;4994345;28;20749;-69
2021/09/23 11:35:13;;;;;;;2.93;1.83;;;17.60;1.00;;;;;;4994368;28;20764;-67
2021/09/23 11:37:39;;;;;;;3.77;3.37;;;17.70;1.00;;;;;;4993916;28;20429;-68
2021/09/23 11:40:06;;;;;;;2.57;1.73;;;17.70;1.00;;;;;;4994263;28;20434;-68
2021/09/23 11:42:33;;;;;;;1.43;1.33;;;17.80;1.00;;;;;;4994581;28;20498;-66
2021/09/23 11:45:20;;;;;;;0.50;0.30;;;17.70;1.00;;;;;;4994139;28;20562;-68
2021/09/23 11:47:56;;;;;;;1.90;1.73;;;17.70;1.00;;;;;;4994025;28;20430;-68
2021/09/23 11:50:35;;;;;;;2.10;0.97;;;17.70;1.00;;;;;;4993855;28;20446;-69
2021/09/23 11:53:08;;;;;;;2.93;0.67;;;17.60;1.00;;;;;;4993849;28;20438;-66
2021/09/23 11:55:35;;;;;;;0.80;0.80;;;17.70;1.00;;;;;;4994273;28;20440;-66
2021/09/23 11:58:13;;;;;;;1.47;0.80;;;17.80;1.00;;;;;;4994165;28;20879;-70
2021/09/23 12:00:46;;;;;;;1.80;1.40;;;17.90;1.00;;;;;;4994343;28;20465;-69
2021/09/23 12:03:15;;;;;;;0.63;0.63;;;17.80;1.00;;;;;;4993713;28;20434;-69
2021/09/23 12:05:41;;;;;;;1.27;1.10;;;17.70;1.00;;;;;;4994551;28;20491;-66
2021/09/23 12:08:16;;;;;;;2.37;1.07;;;17.60;1.00;;;;;;4994275;28;20434;-66
2021/09/23 12:10:54;;;;;;;3.97;1.50;;;17.60;1.00;;;;;;4994049;28;20457;-68
2021/09/23 12:13:35;;;;;;;2.07;1.90;;;17.60;1.00;;;;;;4994267;28;20835;-68
2021/09/23 12:16:05;;;;;;;1.50;1.00;;;17.70;1.00;;;;;;4996012;28;20441;-66
2021/09/23 12:18:31;;;;;;;3.03;2.53;;;17.70;1.00;;;;;;4991338;28;20524;-69
2021/09/23 12:21:01;;;;;;;2.60;1.67;;;17.80;1.00;;;;;;4977181;28;20439;-70
2021/09/23 12:23:28;;;;;;;0.57;0.40;;;17.90;1.00;;;;;;4991552;28;20479;-66
2021/09/23 12:26:15;;;;;;;1.13;0.60;;;18.00;1.00;;;;;;4988985;28;20466;-66
2021/09/23 12:28:49;;;;;;;1.30;1.20;;;18.10;1.00;;;;;;4974251;28;20434;-69
2021/09/23 12:31:16;;;;;;;2.53;2.10;;;18.10;1.00;;;;;;4973936;28;20443;-68
2021/09/23 12:33:54;;;;;;;2.37;1.67;;;18.20;1.00;;;;;;4973971;28;20430;-68
2021/09/23 12:36:30;;;;;;;1.37;1.07;;;18.20;1.00;;;;;;4974015;28;20426;-69
2021/09/23 12:39:03;;;;;;;0.50;0.33;;;18.00;1.00;;;;;;4973526;28;20929;-69
2021/09/23 12:41:28;;;;;;;1.27;1.17;;;18.00;1.00;;;;;;4973929;28;20470;-69
2021/09/23 12:44:03;;;;;;;0.70;0.70;;;18.30;1.00;;;;;;4974011;28;20509;-69
2021/09/23 12:46:30;;;;;;;2.43;1.60;;;18.20;1.00;;;;;;4973757;28;20313;-68
2021/09/23 12:49:16;;;;;;;2.03;1.70;;;18.30;1.00;;;;;;4973371;28;20454;-66
2021/09/23 12:51:45;;;;;;;2.13;1.50;;;18.10;1.00;;;;;;4973901;28;20454;-68
2021/09/23 12:54:20;;;;;;;2.10;1.30;;;18.00;1.00;;;;;;4978655;28;20458;-69
2021/09/23 12:56:46;;;;;;;1.27;1.17;;;17.80;1.00;;;;;;4993175;28;20451;-66
2021/09/23 12:59:23;;;;;;;3.20;1.37;;;17.80;1.00;;;;;;4988075;28;20444;-67